createdAt,value
2019-03-21T00:00:26.224Z,68.12
2019-03-21T00:03:03.176Z,68.02
2019-03-21T00:05:41.294Z,66.55
2019-03-21T00:08:19.379Z,68.47
2019-03-21T00:11:42.056Z,70.67
2019-03-21T00:14:54.573Z,75.20
2019-03-21T00:17:43.500Z,86.02
2019-03-21T00:20:21.349Z,79.82
2019-03-21T00:22:58.170Z,83.37
2019-03-21T00:25:36.613Z,91.32
2019-03-21T00:28:13.710Z,86.67
2019-03-21T00:30:50.904Z,82.92
2019-03-21T00:33:27.819Z,74.92
2019-03-21T00:36:05.658Z,72.15
2019-03-21T00:38:43.560Z,72.00
2019-03-21T00:41:21.831Z,70.17
2019-03-21T00:43:58.925Z,66.65
2019-03-21T00:46:36.131Z,67.70
2019-03-21T00:49:14.152Z,68.47
2019-03-21T00:51:51.417Z,66.35
2019-03-21T00:54:28.418Z,65.67
2019-03-21T00:57:05.665Z,63.73
2019-03-21T00:59:42.566Z,64.00
2019-03-21T01:02:19.586Z,60.35
2019-03-21T01:04:57.119Z,61.77
2019-03-21T01:07:33.826Z,61.15
2019-03-21T01:10:12.763Z,61.30
2019-03-21T01:12:49.690Z,60.28
2019-03-21T01:15:27.251Z,59.63
2019-03-21T01:18:04.283Z,60.98
2019-03-21T01:20:40.999Z,62.30
2019-03-21T01:23:18.213Z,60.20
2019-03-21T01:25:56.255Z,59.45
2019-03-21T01:28:33.324Z,62.03
2019-03-21T01:31:12.143Z,58.63
2019-03-21T01:33:49.409Z,61.23
2019-03-21T01:36:27.466Z,59.25
2019-03-21T01:39:04.904Z,59.48
2019-03-21T01:41:41.922Z,58.08
2019-03-21T01:44:19.081Z,58.30
2019-03-21T01:46:56.138Z,59.38
2019-03-21T01:49:33.017Z,62.13
2019-03-21T01:52:10.039Z,59.05
2019-03-21T01:54:47.187Z,58.65
2019-03-21T01:57:24.478Z,60.33
2019-03-21T02:00:01.340Z,58.17
2019-03-21T02:02:38.308Z,58.60
2019-03-21T02:05:15.765Z,59.10
2019-03-21T02:07:52.800Z,59.27
2019-03-21T02:10:29.770Z,60.28
2019-03-21T02:13:07.076Z,58.30
2019-03-21T02:15:44.039Z,57.78
2019-03-21T02:18:21.021Z,58.40
2019-03-21T02:20:58.106Z,59.08
2019-03-21T02:23:37.502Z,56.02
2019-03-21T02:26:14.422Z,56.75
2019-03-21T02:28:51.518Z,56.18
2019-03-21T02:31:28.078Z,55.20
2019-03-21T02:34:04.855Z,53.87
2019-03-21T02:36:42.042Z,54.25
2019-03-21T02:39:18.689Z,53.33
2019-03-21T02:41:55.981Z,52.55
2019-03-21T02:44:33.151Z,53.02
2019-03-21T02:47:10.308Z,52.75
2019-03-21T02:49:47.023Z,50.35
2019-03-21T02:52:24.047Z,52.90
2019-03-21T02:55:00.958Z,52.93
2019-03-21T02:57:38.830Z,50.40
2019-03-21T03:00:18.662Z,50.92
2019-03-21T03:02:56.998Z,51.25
2019-03-21T03:05:35.738Z,51.58
2019-03-21T03:08:16.404Z,48.75
2019-03-21T03:10:55.513Z,49.75
2019-03-21T03:13:33.123Z,49.67
2019-03-21T03:16:10.399Z,49.08
2019-03-21T03:18:47.720Z,47.88
2019-03-21T03:21:25.269Z,48.73
2019-03-21T03:24:02.206Z,47.70
2019-03-21T03:26:39.436Z,47.33
2019-03-21T03:29:16.450Z,48.05
2019-03-21T03:31:56.613Z,48.38
2019-03-21T03:34:33.660Z,48.30
2019-03-21T03:37:10.444Z,46.55
2019-03-21T03:39:47.815Z,46.60
2019-03-21T03:42:24.766Z,46.18
2019-03-21T03:45:01.844Z,46.53
2019-03-21T03:47:38.940Z,47.50
2019-03-21T03:50:16.682Z,48.13
2019-03-21T03:52:53.877Z,44.60
2019-03-21T03:55:30.863Z,44.65
2019-03-21T03:58:09.353Z,43.90
2019-03-21T04:00:46.101Z,42.98
2019-03-21T04:03:23.370Z,43.10
2019-03-21T04:06:01.498Z,43.60
2019-03-21T04:08:38.463Z,44.67
2019-03-21T04:11:15.764Z,45.03
2019-03-21T04:13:52.839Z,45.92
2019-03-21T04:16:30.254Z,45.35
2019-03-21T04:19:07.017Z,44.65
2019-03-21T04:21:43.887Z,44.03
2019-03-21T04:24:21.033Z,40.33
2019-03-21T04:26:58.061Z,41.33
2019-03-21T04:29:34.851Z,41.58
2019-03-21T04:32:12.449Z,42.23
2019-03-21T04:34:49.233Z,40.58
2019-03-21T04:37:25.836Z,40.43
2019-03-21T04:40:20.693Z,40.78
2019-03-21T04:43:04.354Z,39.75
2019-03-21T04:45:41.553Z,39.90
2019-03-21T04:48:19.672Z,40.95
2019-03-21T04:50:56.682Z,40.08
2019-03-21T04:53:33.822Z,41.28
2019-03-21T04:56:10.394Z,41.70
2019-03-21T04:58:47.308Z,40.73
2019-03-21T05:01:23.846Z,39.25
2019-03-21T05:04:00.848Z,38.25
2019-03-21T05:06:37.848Z,39.50
2019-03-21T05:09:18.700Z,39.53
2019-03-21T05:11:55.483Z,39.92
2019-03-21T05:14:34.925Z,38.90
2019-03-21T05:17:13.316Z,40.30
2019-03-21T05:19:50.634Z,39.10
2019-03-21T05:22:28.964Z,39.33
2019-03-21T05:25:06.203Z,39.20
2019-03-21T05:27:44.903Z,37.25
2019-03-21T05:30:24.874Z,38.25
2019-03-21T05:33:01.961Z,38.78
2019-03-21T05:35:39.918Z,38.05
2019-03-21T05:38:17.487Z,37.73
2019-03-21T05:40:54.125Z,37.53
2019-03-21T05:43:34.148Z,36.90
2019-03-21T05:46:11.007Z,37.98
2019-03-21T05:48:47.989Z,37.03
2019-03-21T05:51:24.884Z,37.40
2019-03-21T05:54:02.072Z,36.50
2019-03-21T05:56:39.374Z,36.77
2019-03-21T05:59:16.485Z,34.58
2019-03-21T06:01:53.433Z,35.92
2019-03-21T06:04:30.211Z,36.05
2019-03-21T06:07:18.266Z,35.15
2019-03-21T06:09:55.248Z,35.03
2019-03-21T06:12:32.271Z,36.35
2019-03-21T06:15:09.578Z,35.45
2019-03-21T06:17:47.960Z,37.10
2019-03-21T06:21:00.234Z,36.28
2019-03-21T06:23:57.365Z,36.15
2019-03-21T06:26:47.295Z,35.92
2019-03-21T06:29:24.245Z,36.17
2019-03-21T06:32:01.387Z,36.48
2019-03-21T06:34:38.519Z,35.92
2019-03-21T06:37:15.528Z,35.30
2019-03-21T06:39:52.509Z,34.50
2019-03-21T06:42:29.381Z,34.92
2019-03-21T06:45:06.429Z,35.95
2019-03-21T06:47:43.239Z,35.30
2019-03-21T06:50:21.313Z,34.67
2019-03-21T06:52:58.364Z,34.08
2019-03-21T06:55:35.981Z,34.63
2019-03-21T06:58:14.221Z,33.90
2019-03-21T07:00:51.269Z,35.25
2019-03-21T07:03:28.203Z,34.35
2019-03-21T07:06:05.365Z,34.33
2019-03-21T07:08:42.717Z,33.98
2019-03-21T07:11:19.582Z,34.45
2019-03-21T07:13:56.459Z,33.90
2019-03-21T07:16:33.553Z,34.40
2019-03-21T07:19:10.940Z,34.67
2019-03-21T07:21:48.018Z,33.02
2019-03-21T07:24:25.342Z,35.40
2019-03-21T07:27:02.280Z,34.18
2019-03-21T07:29:39.536Z,35.83
2019-03-21T07:32:16.835Z,33.85
2019-03-21T07:34:53.870Z,32.88
2019-03-21T07:37:31.039Z,33.78
2019-03-21T07:40:09.446Z,33.48
2019-03-21T07:42:46.354Z,33.50
2019-03-21T07:45:24.341Z,33.08
2019-03-21T07:48:01.264Z,33.00
2019-03-21T07:50:37.967Z,32.78
2019-03-21T07:53:15.007Z,33.65
2019-03-21T07:55:51.834Z,33.73
2019-03-21T07:58:28.661Z,33.50
2019-03-21T08:01:07.097Z,33.50
2019-03-21T08:03:44.265Z,33.02
2019-03-21T08:06:21.279Z,30.97
2019-03-21T08:08:58.183Z,33.42
2019-03-21T08:11:35.241Z,33.95
2019-03-21T08:14:12.126Z,32.78
2019-03-21T08:16:49.310Z,32.33
2019-03-21T08:19:26.373Z,33.55
2019-03-21T08:22:03.881Z,31.65
2019-03-21T08:24:40.897Z,32.78
2019-03-21T08:27:17.941Z,32.00
2019-03-21T08:29:55.607Z,33.45
2019-03-21T08:32:32.984Z,31.55
2019-03-21T08:35:10.897Z,31.10
2019-03-21T08:37:47.874Z,30.43
2019-03-21T08:40:27.740Z,31.23
2019-03-21T08:43:05.688Z,31.93
2019-03-21T08:45:42.771Z,30.55
2019-03-21T08:48:19.811Z,31.55
2019-03-21T08:51:07.328Z,31.73
2019-03-21T08:53:35.605Z,31.95
2019-03-21T08:56:14.076Z,31.52
2019-03-21T08:58:51.192Z,31.52
2019-03-21T09:01:28.302Z,32.00
2019-03-21T09:04:05.171Z,31.15
2019-03-21T09:06:42.387Z,30.37
2019-03-21T09:09:19.621Z,32.23
2019-03-21T09:11:56.598Z,30.15
2019-03-21T09:14:33.479Z,32.15
2019-03-21T09:17:08.869Z,32.63
2019-03-21T09:19:46.313Z,32.50
2019-03-21T09:22:24.031Z,32.53
2019-03-21T09:25:00.711Z,31.55
2019-03-21T09:27:37.442Z,31.45
2019-03-21T09:30:14.786Z,32.42
2019-03-21T09:32:51.816Z,33.20
2019-03-21T09:35:29.051Z,31.20
2019-03-21T09:38:06.767Z,31.93
2019-03-21T09:40:43.522Z,31.45
2019-03-21T09:43:20.602Z,31.70
2019-03-21T09:45:57.682Z,31.68
2019-03-21T09:48:34.510Z,30.50
2019-03-21T09:51:11.811Z,31.33
2019-03-21T09:53:48.647Z,32.17
2019-03-21T09:56:25.720Z,30.77
2019-03-21T09:59:03.885Z,33.23
2019-03-21T10:01:41.091Z,35.10
2019-03-21T10:04:18.310Z,33.75
2019-03-21T10:06:55.323Z,34.15
2019-03-21T10:09:32.326Z,34.33
2019-03-21T10:12:09.510Z,35.05
2019-03-21T10:14:46.528Z,34.45
2019-03-21T10:17:24.095Z,32.45
2019-03-21T10:20:01.164Z,33.70
2019-03-21T10:22:38.175Z,33.45
2019-03-21T10:25:15.046Z,33.92
2019-03-21T10:27:51.971Z,34.50
2019-03-21T10:30:42.464Z,33.55
2019-03-21T10:33:21.165Z,33.42
2019-03-21T10:35:58.754Z,33.35
2019-03-21T10:38:35.768Z,34.03
2019-03-21T10:41:12.967Z,34.73
2019-03-21T10:43:49.925Z,32.65
2019-03-21T10:46:27.562Z,33.65
2019-03-21T10:49:04.345Z,33.92
2019-03-21T10:51:41.494Z,34.67
2019-03-21T10:54:18.585Z,34.78
2019-03-21T10:56:55.544Z,33.02
2019-03-21T10:59:32.638Z,33.30
2019-03-21T11:02:09.753Z,32.20
2019-03-21T11:04:46.564Z,32.83
2019-03-21T11:07:18.816Z,32.90
2019-03-21T11:09:56.051Z,33.92
2019-03-21T11:12:32.900Z,33.35
2019-03-21T11:15:10.339Z,34.30
2019-03-21T11:17:47.329Z,33.55
2019-03-21T11:20:37.918Z,35.30
2019-03-21T11:23:15.111Z,36.03
2019-03-21T11:25:52.306Z,34.40
2019-03-21T11:28:29.384Z,34.43
2019-03-21T11:31:06.350Z,34.48
2019-03-21T11:33:43.105Z,35.52
2019-03-21T11:36:20.283Z,36.65
2019-03-21T11:38:57.141Z,36.23
2019-03-21T11:41:33.895Z,37.90
2019-03-21T11:44:11.251Z,39.60
2019-03-21T11:46:48.738Z,37.15
2019-03-21T11:49:25.413Z,38.80
2019-03-21T11:52:02.429Z,38.00
2019-03-21T11:54:46.449Z,38.60
2019-03-21T11:57:23.407Z,38.33
2019-03-21T12:00:00.654Z,39.27
2019-03-21T12:02:37.514Z,41.40
2019-03-21T12:05:15.625Z,40.35
2019-03-21T12:07:52.852Z,40.12
2019-03-21T12:10:29.612Z,39.48
2019-03-21T12:13:06.917Z,41.23
2019-03-21T12:15:46.294Z,42.10
2019-03-21T12:18:23.708Z,43.80
2019-03-21T12:21:00.246Z,45.75
2019-03-21T12:23:37.261Z,43.25
2019-03-21T12:26:13.955Z,43.02
2019-03-21T12:28:51.001Z,43.85
2019-03-21T12:31:30.068Z,44.42
2019-03-21T12:34:06.604Z,42.98
2019-03-21T12:36:43.894Z,43.73
2019-03-21T12:39:20.963Z,45.23
2019-03-21T12:41:57.726Z,44.20
2019-03-21T12:44:35.435Z,45.48
2019-03-21T12:47:13.074Z,46.68
2019-03-21T12:49:50.331Z,45.05
2019-03-21T12:52:27.560Z,44.33
2019-03-21T12:55:04.605Z,45.45
2019-03-21T12:57:41.616Z,46.30
2019-03-21T13:00:22.155Z,45.15
2019-03-21T13:02:59.262Z,44.90
2019-03-21T13:05:36.354Z,45.70
2019-03-21T13:08:13.246Z,46.75
2019-03-21T13:10:50.137Z,47.80
2019-03-21T13:13:27.589Z,51.08
2019-03-21T13:16:04.494Z,45.58
2019-03-21T13:18:41.602Z,47.45
2019-03-21T13:21:18.731Z,47.27
2019-03-21T13:23:56.999Z,47.85
2019-03-21T13:26:33.939Z,53.13
2019-03-21T13:29:11.698Z,47.17
2019-03-21T13:31:48.882Z,47.88
2019-03-21T13:34:26.102Z,51.58
2019-03-21T13:37:03.152Z,52.00
2019-03-21T13:39:39.830Z,52.67
2019-03-21T13:42:16.955Z,52.75
2019-03-21T13:44:53.577Z,54.70
2019-03-21T13:47:30.692Z,53.85
2019-03-21T13:50:07.591Z,52.05
2019-03-21T13:52:45.796Z,56.28
2019-03-21T13:55:22.135Z,52.98
2019-03-21T13:57:59.712Z,51.90
2019-03-21T14:00:36.272Z,50.85
2019-03-21T14:03:24.330Z,52.78
2019-03-21T14:05:51.469Z,50.65
2019-03-21T14:08:29.279Z,46.30
2019-03-21T14:11:06.254Z,46.02
2019-03-21T14:13:43.981Z,43.98
2019-03-21T14:16:20.580Z,44.85
2019-03-21T14:18:57.421Z,43.70
2019-03-21T14:21:34.283Z,44.55
2019-03-21T14:24:11.550Z,44.33
2019-03-21T14:26:48.408Z,45.05
2019-03-21T14:29:25.135Z,42.93
2019-03-21T14:32:01.928Z,45.52
2019-03-21T14:34:38.948Z,44.27
2019-03-21T14:37:17.702Z,45.67
2019-03-21T14:39:54.542Z,45.25
2019-03-21T14:42:31.175Z,44.65
2019-03-21T14:45:08.763Z,44.70
2019-03-21T14:47:45.917Z,44.83
2019-03-21T14:50:22.875Z,44.93
2019-03-21T14:53:00.809Z,43.58
2019-03-21T14:55:47.149Z,43.98
2019-03-21T14:58:16.225Z,44.58
2019-03-21T15:00:53.497Z,43.08
2019-03-21T15:03:30.808Z,42.98
2019-03-21T15:06:08.091Z,42.03
2019-03-21T15:08:45.276Z,40.85
2019-03-21T15:11:23.119Z,40.88
2019-03-21T15:14:00.109Z,40.55
2019-03-21T15:16:37.412Z,41.63
2019-03-21T15:19:15.697Z,41.92
2019-03-21T15:21:52.749Z,41.45
2019-03-21T15:24:29.731Z,39.80
2019-03-21T15:27:07.099Z,42.17
2019-03-21T15:29:44.100Z,40.05
2019-03-21T15:32:21.010Z,41.30
2019-03-21T15:34:58.138Z,42.27
2019-03-21T15:37:35.276Z,40.65
2019-03-21T15:40:15.091Z,40.95
2019-03-21T15:42:52.007Z,40.70
2019-03-21T15:45:28.631Z,41.73
2019-03-21T15:48:09.941Z,40.48
2019-03-21T15:50:46.036Z,41.40
2019-03-21T15:53:22.799Z,41.98
2019-03-21T15:55:59.821Z,41.50
2019-03-21T15:58:36.682Z,43.60
2019-03-21T16:01:13.332Z,42.20
2019-03-21T16:03:50.718Z,43.33
2019-03-21T16:06:28.069Z,42.30
2019-03-21T16:09:04.831Z,42.43
2019-03-21T16:11:42.110Z,42.40
2019-03-21T16:14:18.678Z,42.62
2019-03-21T16:16:56.231Z,42.33
2019-03-21T16:19:33.339Z,41.95
2019-03-21T16:22:10.107Z,41.53
2019-03-21T16:24:47.462Z,41.35
2019-03-21T16:27:24.331Z,40.48
2019-03-21T16:30:01.679Z,42.13
2019-03-21T16:32:39.922Z,39.92
2019-03-21T16:35:16.982Z,43.98
2019-03-21T16:37:54.070Z,43.23
2019-03-21T16:40:30.658Z,41.63
2019-03-21T16:43:07.792Z,42.00
2019-03-21T16:45:45.003Z,40.88
2019-03-21T16:48:21.961Z,41.15
2019-03-21T16:50:59.242Z,40.63
2019-03-21T16:53:35.958Z,40.90
2019-03-21T16:56:13.335Z,41.50
2019-03-21T16:58:50.091Z,41.65
2019-03-21T17:01:27.277Z,40.78
2019-03-21T17:04:04.484Z,41.95
2019-03-21T17:06:41.839Z,41.73
2019-03-21T17:09:19.181Z,42.65
2019-03-21T17:11:55.865Z,41.73
2019-03-21T17:14:32.821Z,42.38
2019-03-21T17:17:10.016Z,41.83
2019-03-21T17:19:46.739Z,42.50
2019-03-21T17:22:24.678Z,43.80
2019-03-21T17:25:01.891Z,40.92
2019-03-21T17:27:39.866Z,43.92
2019-03-21T17:30:16.910Z,42.27
2019-03-21T17:32:54.075Z,42.27
2019-03-21T17:35:31.278Z,43.20
2019-03-21T17:38:09.575Z,41.48
2019-03-21T17:40:46.399Z,42.13
2019-03-21T17:43:29.436Z,41.55
2019-03-21T17:46:07.654Z,42.75
2019-03-21T17:48:44.316Z,41.48
2019-03-21T17:51:21.174Z,43.52
2019-03-21T17:53:58.283Z,44.00
2019-03-21T17:56:35.787Z,43.70
2019-03-21T17:59:13.071Z,42.05
2019-03-21T18:01:50.059Z,44.15
2019-03-21T18:04:27.980Z,43.75
2019-03-21T18:07:05.183Z,44.85
2019-03-21T18:09:42.309Z,45.40
2019-03-21T18:12:19.115Z,44.75
2019-03-21T18:14:56.299Z,43.78
2019-03-21T18:17:33.348Z,46.58
2019-03-21T18:20:10.741Z,46.55
2019-03-21T18:22:48.145Z,45.25
2019-03-21T18:25:24.950Z,46.80
2019-03-21T18:28:02.627Z,46.92
2019-03-21T18:30:40.281Z,44.25
2019-03-21T18:33:19.350Z,44.10
2019-03-21T18:35:56.538Z,45.83
2019-03-21T18:38:33.876Z,45.70
2019-03-21T18:41:10.546Z,46.30
2019-03-21T18:43:47.634Z,47.55
2019-03-21T18:46:24.511Z,45.70
2019-03-21T18:49:01.496Z,47.20
2019-03-21T18:51:39.863Z,49.38
2019-03-21T18:54:17.056Z,51.13
2019-03-21T18:56:54.274Z,47.05
2019-03-21T18:59:37.566Z,47.50
2019-03-21T19:02:14.446Z,45.55
2019-03-21T19:04:51.484Z,47.08
2019-03-21T19:07:28.602Z,48.00
2019-03-21T19:10:06.043Z,48.95
2019-03-21T19:12:43.169Z,49.00
2019-03-21T19:15:20.205Z,52.00
2019-03-21T19:17:56.925Z,50.17
2019-03-21T19:20:33.952Z,49.38
2019-03-21T19:23:11.466Z,48.17
2019-03-21T19:25:48.156Z,45.55
2019-03-21T19:28:25.377Z,45.83
2019-03-21T19:31:02.595Z,48.30
2019-03-21T19:33:39.619Z,50.17
2019-03-21T19:36:16.635Z,47.60
2019-03-21T19:38:53.508Z,48.85
2019-03-21T19:41:31.515Z,49.35
2019-03-21T19:44:08.383Z,52.05
2019-03-21T19:46:45.578Z,50.43
2019-03-21T19:49:22.350Z,51.18
2019-03-21T19:51:59.617Z,51.65
2019-03-21T19:54:36.488Z,48.08
2019-03-21T19:57:13.414Z,49.45
2019-03-21T19:59:50.135Z,50.92
2019-03-21T20:02:27.492Z,52.35
2019-03-21T20:05:04.559Z,52.80
2019-03-21T20:07:42.098Z,48.87
2019-03-21T20:10:19.836Z,51.92
2019-03-21T20:12:56.966Z,53.23
2019-03-21T20:15:34.477Z,52.90
2019-03-21T20:18:11.342Z,53.08
2019-03-21T20:20:49.728Z,54.13
2019-03-21T20:23:26.928Z,53.95
2019-03-21T20:26:04.248Z,55.40
2019-03-21T20:28:41.458Z,52.23
2019-03-21T20:31:19.425Z,55.90
2019-03-21T20:33:56.463Z,57.23
2019-03-21T20:36:33.425Z,57.03
2019-03-21T20:39:11.414Z,55.75
2019-03-21T20:41:48.653Z,53.15
2019-03-21T20:44:27.301Z,56.00
2019-03-21T20:47:04.529Z,56.18
2019-03-21T20:49:41.596Z,57.43
2019-03-21T20:52:19.058Z,57.17
2019-03-21T20:54:56.004Z,58.33
2019-03-21T20:57:33.135Z,53.95
2019-03-21T21:00:10.742Z,52.78
2019-03-21T21:02:48.159Z,56.70
2019-03-21T21:05:25.201Z,54.50
2019-03-21T21:08:03.075Z,54.42
2019-03-21T21:10:40.128Z,56.00
2019-03-21T21:13:16.829Z,58.58
2019-03-21T21:15:53.852Z,56.18
2019-03-21T21:18:31.132Z,59.55
2019-03-21T21:21:08.330Z,59.85
2019-03-21T21:23:46.158Z,59.23
2019-03-21T21:26:22.808Z,57.93
2019-03-21T21:29:00.386Z,57.53
2019-03-21T21:31:37.311Z,59.45
2019-03-21T21:34:13.982Z,60.33
2019-03-21T21:36:51.491Z,62.13
2019-03-21T21:39:28.527Z,65.20
2019-03-21T21:42:07.228Z,63.85
2019-03-21T21:44:43.863Z,67.67
2019-03-21T21:47:20.663Z,69.03
2019-03-21T21:49:57.852Z,67.35
2019-03-21T21:52:42.029Z,69.03
2019-03-21T21:55:13.915Z,69.45
2019-03-21T21:57:50.819Z,70.40
2019-03-21T22:00:27.993Z,69.72
2019-03-21T22:03:05.344Z,71.28
2019-03-21T22:05:42.136Z,70.22
2019-03-21T22:08:19.567Z,68.62
2019-03-21T22:10:57.289Z,70.95
2019-03-21T22:13:34.087Z,69.67
2019-03-21T22:16:11.245Z,69.85
2019-03-21T22:18:48.238Z,70.87
2019-03-21T22:21:25.337Z,70.95
2019-03-21T22:24:02.156Z,71.47
2019-03-21T22:26:39.098Z,72.20
2019-03-21T22:29:16.175Z,71.65
2019-03-21T22:31:53.697Z,73.45
2019-03-21T22:34:32.304Z,74.15
2019-03-21T22:37:09.205Z,71.20
2019-03-21T22:39:46.006Z,73.15
2019-03-21T22:42:23.068Z,73.97
2019-03-21T22:45:00.351Z,72.55
2019-03-21T22:47:36.838Z,74.58
2019-03-21T22:50:15.800Z,73.92
2019-03-21T22:52:52.773Z,72.37
2019-03-21T22:55:30.031Z,71.92
2019-03-21T22:58:06.964Z,70.92
2019-03-21T23:00:45.776Z,74.87
2019-03-21T23:03:23.500Z,72.15
2019-03-21T23:06:01.213Z,74.53
2019-03-21T23:08:38.134Z,74.20
2019-03-21T23:11:15.128Z,74.10
2019-03-21T23:13:54.348Z,73.40
2019-03-21T23:16:32.229Z,73.97
2019-03-21T23:19:09.123Z,73.28
2019-03-21T23:21:45.621Z,73.75
2019-03-21T23:24:22.997Z,77.75
2019-03-21T23:27:00.167Z,75.03
2019-03-21T23:29:36.856Z,74.37
2019-03-21T23:32:13.696Z,72.55
2019-03-21T23:34:51.702Z,73.30
2019-03-21T23:37:29.827Z,73.87
2019-03-21T23:40:06.663Z,71.62
2019-03-21T23:42:43.529Z,73.22
2019-03-21T23:45:20.508Z,73.37
2019-03-21T23:47:57.613Z,71.55
2019-03-21T23:50:35.450Z,76.02
2019-03-21T23:53:12.230Z,79.92
2019-03-21T23:55:49.216Z,79.77
2019-03-21T23:58:27.397Z,80.10
